Tervuren Meer informatie Tervuren


Bezoek onze andere website:

Meteotemplate

Home Weather Station

Saratoga


U vindt ons ook hier:

UK Metoffice

European Weather Network

WeatherCloud

Weather Underground

Benelux Weer Netwerk

AWEKAS

Citizen Weather Observer Program (CWOP)


Apparatuur in gebruik:

Davis VP2

Meteobridge


METAR rapporten vliegvelden

   
EBBR - Brussels
Gewijzigd: Jun 20 2018 7:20 am
Grotendeels bewolkt  
Grotendeels bewolkt  
   Wind: ZW 13 km/h
Wind: ZW 13 km/h
Temperatuur: 17°C
Dauwpunt: 14°C
Vochtigheid: 83%
Barometer: 1023 mb
Bewolking: Grotendeels bewolkt
Zicht: meer dan 10 km
Bewolking: Grotendeels bewolkt 1400 ft
EBBR 200520Z 23007KT 9999 BKN014 17/14 Q1023 BECMG SCT015
EBAW - Antwerp
Gewijzigd: Jun 20 2018 7:20 am
Grotendeels bewolkt  
Grotendeels bewolkt  
   Wind: ZW 13 km/h
Wind: ZW 13 km/h
Temperatuur: 17°C
Dauwpunt: 14°C
Vochtigheid: 83%
Barometer: 1022 mb
Bewolking: Grotendeels bewolkt
Zicht: meer dan 10 km
Bewolking: Grotendeels bewolkt 1100 ft
EBAW 200520Z 23007KT 9999 BKN011 17/14 Q1022 BECMG BKN015
EHBK - Maastricht
Gewijzigd: Jun 20 2018 6:55 am
Bewolking  
Bewolking  
   Wind: WZW 9.3 km/h
Wind: WZW 9.3 km/h
Temperatuur: 18°C
Dauwpunt: 15°C
Vochtigheid: 83%
Barometer: 1022 mb
Bewolking: Bewolking
Zicht: meer dan 10 km
Bewolking: Bewolking 1300 ft
EHBK 200455Z AUTO 25005KT 210V280 9999 OVC013 18/15 Q1022 BECMG BKN015
EDLV - Nijmegen
Gewijzigd: Jun 20 2018 7:20 am
Helder  
Helder  
   Wind: varieert 5.6 km/h
Wind: varieert 5.6 km/h
Temperatuur: 18°C
Dauwpunt: 18°C
Vochtigheid: 100%
Barometer: 1022 mb
Zicht: meer dan 10 km
Bewolking: Helder
EDLV 200520Z VRB03KT CAVOK 18/18 Q1022
EHRD - Rotterdam
Gewijzigd: Jun 20 2018 6:55 am
Bewolking  
Bewolking  
   Wind: ZW 16.7 km/h
Wind: ZW 16.7 km/h
Temperatuur: 16°C
Dauwpunt: 15°C
Vochtigheid: 94%
Barometer: 1021 mb
Bewolking: Bewolking
Zicht: 8 km
Bewolking: Grotendeels bewolkt 700 ft,
Bewolking 800 ft
EHRD 200455Z AUTO 22009KT 190V250 8000 BKN007 OVC008 16/15 Q1021 BECMG 7000
 

Script ontwikkeld door  Saratoga-weather.org Aangepast voor de template door  Weerstation Leuven